createdAt,value
2022-12-18T00:01:16.690Z,51.42
2022-12-18T00:03:43.515Z,53.63
2022-12-18T00:06:11.374Z,52.55
2022-12-18T00:08:37.882Z,60.63
2022-12-18T00:11:09.981Z,48.95
2022-12-18T00:13:37.015Z,46.75
2022-12-18T00:16:06.301Z,52.35
2022-12-18T00:18:33.221Z,49.22
2022-12-18T00:21:01.949Z,52.95
2022-12-18T00:23:30.308Z,47.25
2022-12-18T00:26:01.450Z,46.80
2022-12-18T00:28:28.187Z,51.78
2022-12-18T00:31:07.081Z,49.58
2022-12-18T00:33:34.069Z,53.13
2022-12-18T00:36:05.403Z,51.60
2022-12-18T00:38:32.938Z,57.58
2022-12-18T00:41:00.050Z,43.30
2022-12-18T00:43:27.066Z,50.08
2022-12-18T00:45:54.491Z,43.03
2022-12-18T00:48:21.903Z,49.75
2022-12-18T00:50:50.087Z,50.97
2022-12-18T00:53:17.088Z,45.95
2022-12-18T00:55:45.188Z,53.38
2022-12-18T00:58:17.368Z,52.78
2022-12-18T01:00:45.256Z,53.05
2022-12-18T01:03:17.138Z,53.83
2022-12-18T01:05:43.949Z,49.85
2022-12-18T01:08:11.190Z,56.78
2022-12-18T01:10:40.773Z,50.55
2022-12-18T01:13:08.321Z,51.08
2022-12-18T01:15:35.368Z,48.10
2022-12-18T01:18:02.457Z,48.08
2022-12-18T01:20:29.088Z,54.03
2022-12-18T01:22:56.105Z,54.42
2022-12-18T01:25:23.298Z,54.75
2022-12-18T01:27:49.811Z,49.25
2022-12-18T01:30:16.379Z,45.42
2022-12-18T01:32:42.889Z,43.15
2022-12-18T01:35:10.199Z,50.33
2022-12-18T01:37:37.284Z,46.80
2022-12-18T01:40:04.994Z,57.15
2022-12-18T01:42:32.053Z,49.20
2022-12-18T01:45:03.664Z,52.78
2022-12-18T01:47:38.473Z,50.95
2022-12-18T01:50:22.108Z,50.30
2022-12-18T01:52:52.533Z,54.88
2022-12-18T01:55:22.200Z,54.60
2022-12-18T01:57:50.624Z,50.00
2022-12-18T02:00:21.070Z,47.97
2022-12-18T02:02:49.628Z,53.67
2022-12-18T02:05:23.669Z,48.90
2022-12-18T02:08:24.795Z,39.10
2022-12-18T02:11:16.666Z,51.78
2022-12-18T02:13:54.533Z,47.28
2022-12-18T02:16:49.049Z,46.58
2022-12-18T02:19:42.165Z,57.22
2022-12-18T02:22:24.369Z,58.35
2022-12-18T02:25:00.767Z,55.85
2022-12-18T02:27:32.077Z,50.70
2022-12-18T02:30:00.573Z,47.28
2022-12-18T02:32:32.174Z,48.05
2022-12-18T02:35:01.016Z,50.55
2022-12-18T02:37:29.686Z,48.97
2022-12-18T02:40:00.085Z,49.10
2022-12-18T02:42:28.894Z,54.45
2022-12-18T02:44:57.472Z,60.20
2022-12-18T02:47:29.346Z,59.10
2022-12-18T02:49:58.951Z,48.95
2022-12-18T02:52:33.635Z,58.33
2022-12-18T02:55:17.072Z,50.40
2022-12-18T02:57:52.726Z,56.00
2022-12-18T03:00:24.185Z,48.55
2022-12-18T03:03:03.442Z,54.17
2022-12-18T03:05:53.584Z,51.78
2022-12-18T03:08:25.123Z,50.88
2022-12-18T03:11:03.631Z,52.70
2022-12-18T03:13:39.603Z,47.42
2022-12-18T03:16:09.170Z,52.28
2022-12-18T03:18:47.676Z,57.28
2022-12-18T03:21:17.822Z,38.40
2022-12-18T03:23:50.954Z,47.30
2022-12-18T03:26:28.152Z,43.88
2022-12-18T03:29:01.057Z,51.53
2022-12-18T03:31:32.256Z,51.10
2022-12-18T03:34:02.920Z,50.33
2022-12-18T03:36:32.761Z,44.05
2022-12-18T03:38:59.866Z,55.22
2022-12-18T03:41:32.082Z,48.05
2022-12-18T03:44:01.799Z,47.88
2022-12-18T03:46:34.678Z,47.40
2022-12-18T03:49:19.660Z,47.65
2022-12-18T03:51:57.028Z,40.55
2022-12-18T03:54:24.736Z,46.85
2022-12-18T03:56:58.151Z,53.47
2022-12-18T03:59:27.617Z,48.75
2022-12-18T04:01:59.000Z,44.10
2022-12-18T04:04:27.137Z,50.78
2022-12-18T04:06:53.942Z,49.50
2022-12-18T04:09:22.046Z,54.92
2022-12-18T04:11:49.453Z,44.47
2022-12-18T04:14:18.241Z,42.97
2022-12-18T04:16:46.163Z,40.75
2022-12-18T04:19:12.912Z,46.47
2022-12-18T04:21:39.577Z,54.35
2022-12-18T04:24:06.336Z,39.22
2022-12-18T04:26:33.442Z,48.17
2022-12-18T04:29:00.457Z,44.88
2022-12-18T04:31:27.582Z,46.15
2022-12-18T04:33:54.620Z,42.97
2022-12-18T04:36:21.153Z,41.70
2022-12-18T04:38:48.209Z,46.95
2022-12-18T04:41:15.235Z,41.17
2022-12-18T04:43:41.911Z,39.72
2022-12-18T04:46:09.534Z,46.75
2022-12-18T04:48:37.236Z,36.88
2022-12-18T04:51:06.228Z,32.35
2022-12-18T04:53:33.029Z,36.15
2022-12-18T04:56:08.468Z,35.80
2022-12-18T04:58:35.140Z,37.63
2022-12-18T05:01:02.359Z,32.78
2022-12-18T05:03:29.525Z,39.65
2022-12-18T05:05:56.178Z,39.83
2022-12-18T05:08:23.324Z,39.40
2022-12-18T05:10:50.585Z,32.95
2022-12-18T05:13:17.114Z,38.10
2022-12-18T05:15:44.271Z,33.78
2022-12-18T05:18:11.237Z,30.67
2022-12-18T05:20:37.778Z,40.53
2022-12-18T05:23:04.286Z,29.00
2022-12-18T05:25:31.341Z,32.58
2022-12-18T05:27:59.504Z,32.65
2022-12-18T05:30:26.639Z,36.30
2022-12-18T05:32:53.634Z,34.05
2022-12-18T05:35:20.608Z,29.20
2022-12-18T05:37:47.092Z,29.25
2022-12-18T05:40:14.501Z,26.95
2022-12-18T05:42:41.572Z,28.17
2022-12-18T05:45:08.907Z,30.33
2022-12-18T05:47:35.837Z,32.25
2022-12-18T05:50:02.515Z,30.95
2022-12-18T05:52:29.045Z,33.88
2022-12-18T05:54:56.163Z,29.02
2022-12-18T05:57:23.225Z,29.55
2022-12-18T05:59:50.236Z,31.20
2022-12-18T06:02:18.089Z,29.90
2022-12-18T06:04:45.368Z,27.77
2022-12-18T06:07:12.383Z,31.10
2022-12-18T06:09:39.433Z,33.40
2022-12-18T06:12:06.335Z,31.00
2022-12-18T06:14:32.854Z,34.50
2022-12-18T06:17:00.378Z,27.77
2022-12-18T06:19:27.837Z,28.00
2022-12-18T06:21:54.344Z,31.83
2022-12-18T06:24:21.037Z,31.00
2022-12-18T06:26:48.059Z,30.73
2022-12-18T06:29:15.108Z,25.67
2022-12-18T06:31:42.135Z,27.98
2022-12-18T06:34:09.184Z,34.25
2022-12-18T06:36:36.297Z,25.77
2022-12-18T06:39:04.043Z,24.75
2022-12-18T06:41:30.683Z,30.48
2022-12-18T06:44:00.006Z,26.13
2022-12-18T06:46:27.317Z,26.63
2022-12-18T06:48:53.826Z,27.73
2022-12-18T06:51:22.796Z,30.30
2022-12-18T06:53:50.033Z,25.02
2022-12-18T06:56:17.277Z,31.67
2022-12-18T06:58:43.855Z,22.10
2022-12-18T07:01:12.888Z,38.13
2022-12-18T07:03:41.339Z,27.60
2022-12-18T07:06:15.134Z,28.75
2022-12-18T07:08:41.838Z,22.73
2022-12-18T07:11:08.915Z,26.50
2022-12-18T07:13:35.523Z,22.65
2022-12-18T07:16:12.879Z,28.88
2022-12-18T07:18:42.773Z,23.67
2022-12-18T07:21:15.017Z,23.20
2022-12-18T07:23:41.899Z,27.83
2022-12-18T07:26:12.769Z,18.98
2022-12-18T07:28:41.484Z,23.33
2022-12-18T07:31:11.504Z,18.42
2022-12-18T07:33:39.341Z,20.50
2022-12-18T07:36:08.775Z,21.88
2022-12-18T07:38:36.230Z,26.55
2022-12-18T07:41:04.719Z,19.50
2022-12-18T07:43:34.005Z,20.20
2022-12-18T07:46:00.721Z,18.98
2022-12-18T07:48:27.360Z,18.48
2022-12-18T07:50:53.964Z,21.17
2022-12-18T07:53:20.742Z,17.98
2022-12-18T07:56:18.373Z,20.48
2022-12-18T07:58:34.524Z,16.92
2022-12-18T08:01:19.458Z,20.95
2022-12-18T08:03:48.630Z,19.52
2022-12-18T08:06:17.140Z,20.38
2022-12-18T08:08:44.135Z,21.77
2022-12-18T08:11:11.105Z,15.77
2022-12-18T08:13:38.908Z,19.60
2022-12-18T08:16:08.554Z,21.27
2022-12-18T08:18:38.553Z,17.80
2022-12-18T08:21:19.366Z,22.65
2022-12-18T08:23:48.487Z,17.90
2022-12-18T08:26:15.726Z,21.75
2022-12-18T08:28:42.412Z,19.27
2022-12-18T08:31:09.829Z,25.88
2022-12-18T08:33:38.296Z,14.70
2022-12-18T08:36:05.868Z,18.88
2022-12-18T08:38:33.386Z,15.05
2022-12-18T08:41:01.515Z,18.13
2022-12-18T08:43:47.212Z,17.77
2022-12-18T08:46:13.975Z,19.73
2022-12-18T08:48:40.639Z,15.48
2022-12-18T08:51:07.593Z,17.25
2022-12-18T08:53:35.799Z,20.13
2022-12-18T08:56:03.583Z,17.90
2022-12-18T08:58:30.738Z,15.30
2022-12-18T09:01:09.978Z,17.33
2022-12-18T09:03:37.085Z,17.55
2022-12-18T09:06:03.907Z,15.18
2022-12-18T09:08:30.507Z,20.08
2022-12-18T09:10:57.943Z,18.42
2022-12-18T09:13:25.099Z,13.60
2022-12-18T09:15:54.493Z,16.35
2022-12-18T09:18:23.456Z,16.40
2022-12-18T09:20:51.443Z,16.80
2022-12-18T09:23:18.026Z,16.70
2022-12-18T09:25:44.584Z,16.98
2022-12-18T09:28:15.968Z,14.32
2022-12-18T09:30:49.730Z,14.70
2022-12-18T09:33:17.551Z,17.67
2022-12-18T09:35:45.531Z,13.90
2022-12-18T09:38:20.491Z,14.70
2022-12-18T09:43:36.297Z,14.13
2022-12-18T09:46:08.830Z,15.18
2022-12-18T09:48:45.746Z,14.27
2022-12-18T09:51:15.995Z,13.80
2022-12-18T09:53:48.326Z,14.57
2022-12-18T09:56:20.589Z,14.02
2022-12-18T09:58:59.369Z,16.08
2022-12-18T10:01:34.003Z,16.15
2022-12-18T10:04:09.796Z,12.73
2022-12-18T10:07:07.267Z,14.57
2022-12-18T10:09:43.917Z,14.23
2022-12-18T10:14:50.545Z,11.77
2022-12-18T10:17:38.693Z,13.38
2022-12-18T10:20:20.266Z,12.98
2022-12-18T10:22:56.202Z,16.90
2022-12-18T10:25:39.806Z,10.32
2022-12-18T10:28:18.482Z,13.35
2022-12-18T10:30:46.234Z,16.02
2022-12-18T10:33:19.741Z,12.77
2022-12-18T10:35:48.595Z,16.88
2022-12-18T10:38:15.158Z,10.35
2022-12-18T10:41:03.447Z,14.70
2022-12-18T10:43:32.368Z,14.27
2022-12-18T10:46:11.451Z,11.45
2022-12-18T10:48:42.409Z,12.73
2022-12-18T10:51:12.288Z,13.50
2022-12-18T10:53:42.465Z,14.35
2022-12-18T10:56:10.278Z,14.77
2022-12-18T10:58:39.684Z,13.18
2022-12-18T11:01:18.086Z,15.88
2022-12-18T11:03:47.474Z,11.98
2022-12-18T11:06:19.816Z,17.38
2022-12-18T11:09:06.576Z,11.63
2022-12-18T11:11:39.531Z,12.35
2022-12-18T11:14:18.171Z,13.55
2022-12-18T11:17:09.285Z,11.90
2022-12-18T11:19:38.681Z,12.23
2022-12-18T11:22:21.929Z,10.30
2022-12-18T11:25:35.017Z,9.93
2022-12-18T11:28:03.520Z,12.27
2022-12-18T11:30:33.012Z,14.45
2022-12-18T11:33:00.117Z,11.32
2022-12-18T11:35:43.407Z,12.05
2022-12-18T11:38:29.728Z,13.45
2022-12-18T11:40:56.858Z,12.65
2022-12-18T11:43:30.211Z,12.95
2022-12-18T11:46:08.467Z,12.02
2022-12-18T11:48:42.459Z,9.30
2022-12-18T11:51:17.101Z,11.45
2022-12-18T11:53:43.634Z,6.70
2022-12-18T11:56:31.276Z,10.95
2022-12-18T11:59:22.338Z,11.60
2022-12-18T12:01:56.348Z,13.93
2022-12-18T12:04:47.054Z,9.90
2022-12-18T12:07:35.770Z,10.73
2022-12-18T12:10:24.005Z,12.02
2022-12-18T12:12:56.433Z,9.70
2022-12-18T12:15:52.324Z,11.80
2022-12-18T12:18:25.691Z,10.18
2022-12-18T12:21:13.728Z,12.15
2022-12-18T12:24:03.286Z,12.10
2022-12-18T12:26:39.697Z,14.02
2022-12-18T12:29:26.270Z,12.25
2022-12-18T12:32:17.321Z,13.75
2022-12-18T12:35:09.896Z,10.63
2022-12-18T12:37:51.497Z,12.57
2022-12-18T12:40:51.357Z,10.85
2022-12-18T12:43:26.099Z,14.05
2022-12-18T12:46:01.588Z,9.65
2022-12-18T12:48:53.611Z,13.30
2022-12-18T12:51:24.851Z,12.27
2022-12-18T12:53:54.205Z,11.35
2022-12-18T12:56:22.369Z,10.45
2022-12-18T12:59:12.108Z,14.15
2022-12-18T13:02:01.703Z,13.32
2022-12-18T13:04:37.423Z,11.27
2022-12-18T13:07:17.085Z,10.13
2022-12-18T13:10:26.988Z,11.25
2022-12-18T13:13:00.945Z,10.82
2022-12-18T13:15:40.790Z,11.60
2022-12-18T13:18:10.191Z,15.90
2022-12-18T13:20:37.891Z,10.60
2022-12-18T13:23:41.584Z,14.40
2022-12-18T13:26:11.964Z,14.27
2022-12-18T13:28:47.762Z,13.15
2022-12-18T13:31:33.109Z,11.90
2022-12-18T13:36:57.021Z,12.55
2022-12-18T13:39:30.318Z,14.32
2022-12-18T13:42:08.904Z,16.20
2022-12-18T13:44:41.603Z,13.32
2022-12-18T13:47:32.579Z,13.30
2022-12-18T13:50:01.143Z,13.90
2022-12-18T13:52:38.506Z,16.52
2022-12-18T13:55:08.743Z,14.68
2022-12-18T13:57:41.790Z,17.08
2022-12-18T14:00:26.786Z,11.70
2022-12-18T14:02:54.036Z,14.18
2022-12-18T14:05:26.806Z,14.73
2022-12-18T14:07:55.620Z,13.07
2022-12-18T14:10:44.303Z,11.23
2022-12-18T14:13:16.059Z,13.10
2022-12-18T14:15:47.556Z,11.32
2022-12-18T14:18:40.622Z,14.07
2022-12-18T14:21:08.119Z,13.80
2022-12-18T14:23:42.421Z,15.55
2022-12-18T14:26:35.399Z,13.43
2022-12-18T14:29:20.653Z,12.70
2022-12-18T14:32:17.074Z,15.18
2022-12-18T14:34:52.243Z,14.55
2022-12-18T14:37:23.553Z,13.35
2022-12-18T14:40:10.438Z,12.77
2022-12-18T14:42:38.836Z,17.20
2022-12-18T14:45:39.151Z,15.65
2022-12-18T14:48:31.890Z,15.70
2022-12-18T14:51:04.246Z,14.25
2022-12-18T14:54:01.765Z,16.85
2022-12-18T14:56:31.649Z,28.08
2022-12-18T14:59:05.176Z,17.65
2022-12-18T15:01:38.089Z,17.48
2022-12-18T15:04:21.157Z,18.25
2022-12-18T15:06:49.257Z,25.13
2022-12-18T15:09:26.907Z,20.83
2022-12-18T15:12:01.704Z,22.60
2022-12-18T15:14:35.869Z,15.32
2022-12-18T15:17:06.830Z,11.65
2022-12-18T15:19:40.292Z,18.83
2022-12-18T15:22:18.607Z,18.15
2022-12-18T15:24:45.245Z,19.73
2022-12-18T15:27:28.773Z,20.42
2022-12-18T15:30:19.309Z,25.17
2022-12-18T15:32:46.297Z,17.77
2022-12-18T15:35:12.868Z,15.48
2022-12-18T15:37:40.675Z,17.88
2022-12-18T15:40:20.334Z,14.55
2022-12-18T15:43:06.960Z,16.25
2022-12-18T15:45:33.606Z,14.20
2022-12-18T15:48:01.091Z,18.13
2022-12-18T15:50:27.657Z,12.52
2022-12-18T15:52:56.464Z,15.10
2022-12-18T15:55:43.888Z,14.90
2022-12-18T15:58:12.080Z,13.32
2022-12-18T16:00:41.151Z,18.75
2022-12-18T16:03:09.434Z,15.65
2022-12-18T16:05:36.063Z,17.00
2022-12-18T16:08:02.706Z,14.20
2022-12-18T16:10:29.783Z,26.48
2022-12-18T16:12:56.350Z,20.75
2022-12-18T16:15:24.945Z,16.75
2022-12-18T16:17:52.883Z,18.15
2022-12-18T16:20:23.307Z,14.02
2022-12-18T16:22:50.659Z,16.80
2022-12-18T16:25:25.576Z,18.45
2022-12-18T16:27:53.285Z,16.77
2022-12-18T16:30:22.899Z,20.55
2022-12-18T16:32:49.692Z,17.02
2022-12-18T16:35:17.471Z,21.33
2022-12-18T16:37:44.177Z,15.55
2022-12-18T16:40:13.534Z,20.27
2022-12-18T16:42:41.762Z,17.38
2022-12-18T16:45:10.413Z,18.75
2022-12-18T16:47:37.072Z,15.93
2022-12-18T16:50:04.743Z,22.42
2022-12-18T16:52:31.449Z,15.07
2022-12-18T16:54:58.027Z,25.13
2022-12-18T16:57:25.358Z,17.42
2022-12-18T16:59:53.250Z,22.70
2022-12-18T17:02:24.314Z,18.30
2022-12-18T17:04:54.121Z,20.83
2022-12-18T17:07:20.852Z,21.85
2022-12-18T17:09:47.394Z,23.45
2022-12-18T17:12:13.945Z,26.48
2022-12-18T17:14:40.465Z,24.50
2022-12-18T17:17:24.002Z,21.95
2022-12-18T17:19:52.689Z,29.60
2022-12-18T17:22:20.461Z,22.08
2022-12-18T17:24:47.448Z,19.05
2022-12-18T17:27:14.282Z,19.63
2022-12-18T17:29:46.819Z,20.55
2022-12-18T17:32:15.363Z,23.70
2022-12-18T17:34:41.928Z,24.42
2022-12-18T17:37:09.511Z,23.58
2022-12-18T17:39:36.217Z,28.80
2022-12-18T17:42:02.729Z,21.10
2022-12-18T17:44:29.637Z,19.67
2022-12-18T17:46:56.766Z,22.50
2022-12-18T17:49:23.360Z,19.48
2022-12-18T17:51:50.013Z,20.17
2022-12-18T17:54:17.074Z,19.88
2022-12-18T17:56:43.566Z,23.70
2022-12-18T17:59:10.558Z,19.95
2022-12-18T18:01:44.023Z,20.52
2022-12-18T18:04:12.385Z,20.70
2022-12-18T18:06:39.445Z,27.98
2022-12-18T18:09:13.400Z,26.85
2022-12-18T18:12:02.209Z,20.83
2022-12-18T18:14:28.924Z,21.13
2022-12-18T18:16:56.875Z,22.23
2022-12-18T18:19:25.744Z,38.17
2022-12-18T18:21:53.934Z,34.65
2022-12-18T18:24:23.629Z,41.00
2022-12-18T18:26:50.314Z,23.30
2022-12-18T18:29:23.081Z,41.25
2022-12-18T18:31:50.671Z,38.50
2022-12-18T18:34:21.764Z,32.55
2022-12-18T18:36:48.338Z,21.42
2022-12-18T18:39:15.086Z,22.38
2022-12-18T18:41:47.743Z,21.30
2022-12-18T18:44:20.486Z,23.38
2022-12-18T18:49:16.972Z,24.67
2022-12-18T18:51:43.500Z,26.13
2022-12-18T18:54:10.290Z,26.90
2022-12-18T18:57:04.088Z,23.60
2022-12-18T18:59:29.693Z,32.45
2022-12-18T19:04:25.056Z,24.35
2022-12-18T19:06:51.618Z,25.70
2022-12-18T19:09:18.426Z,26.50
2022-12-18T19:12:03.913Z,22.35
2022-12-18T19:14:31.334Z,25.35
2022-12-18T19:16:57.925Z,24.77
2022-12-18T19:19:25.312Z,27.90
2022-12-18T19:21:52.278Z,26.70
2022-12-18T19:24:18.860Z,34.38
2022-12-18T19:26:45.503Z,24.90
2022-12-18T19:29:14.698Z,27.83
2022-12-18T19:31:41.635Z,22.02
2022-12-18T19:34:09.557Z,20.95
2022-12-18T19:36:38.765Z,25.65
2022-12-18T19:39:17.968Z,26.30
2022-12-18T19:41:46.112Z,20.90
2022-12-18T19:44:16.099Z,22.92
2022-12-18T19:46:43.930Z,27.85
2022-12-18T19:49:11.140Z,28.08
2022-12-18T19:51:38.836Z,23.30
2022-12-18T19:54:05.711Z,24.95
2022-12-18T19:56:34.541Z,46.28
2022-12-18T19:59:02.864Z,28.58
2022-12-18T20:01:30.461Z,28.30
2022-12-18T20:03:58.863Z,22.63
2022-12-18T20:06:35.857Z,22.70
2022-12-18T20:09:07.046Z,24.75
2022-12-18T20:11:39.644Z,24.10
2022-12-18T20:16:36.144Z,23.48
2022-12-18T20:19:03.919Z,25.77
2022-12-18T20:21:30.457Z,21.63
2022-12-18T20:23:57.038Z,22.17
2022-12-18T20:26:24.855Z,25.48
2022-12-18T20:28:52.160Z,23.40
2022-12-18T20:31:18.735Z,25.00
2022-12-18T20:33:47.544Z,34.00
2022-12-18T20:36:23.610Z,38.33
2022-12-18T20:38:55.770Z,24.40
2022-12-18T20:41:24.898Z,25.38
2022-12-18T20:43:51.930Z,24.77
2022-12-18T20:46:18.902Z,30.45
2022-12-18T20:48:45.995Z,24.63
2022-12-18T20:51:15.532Z,26.85
2022-12-18T20:53:42.816Z,26.83
2022-12-18T20:56:21.083Z,26.30
2022-12-18T20:58:49.082Z,23.55
2022-12-18T21:01:18.603Z,22.02
2022-12-18T21:03:46.308Z,27.40
2022-12-18T21:06:15.433Z,24.88
2022-12-18T21:08:42.856Z,25.10
2022-12-18T21:11:40.340Z,27.50
2022-12-18T21:14:17.891Z,27.23
2022-12-18T21:16:45.002Z,27.08
2022-12-18T21:19:14.966Z,24.77
2022-12-18T21:21:42.711Z,36.13
2022-12-18T21:24:13.155Z,28.23
2022-12-18T21:26:45.125Z,27.58
2022-12-18T21:29:15.704Z,29.10
2022-12-18T21:31:43.756Z,32.83
2022-12-18T21:34:19.241Z,24.58
2022-12-18T21:36:47.325Z,24.40
2022-12-18T21:39:14.657Z,28.20
2022-12-18T21:42:00.575Z,27.58
2022-12-18T21:44:28.040Z,32.45
2022-12-18T21:46:58.341Z,31.15
2022-12-18T21:49:30.946Z,30.25
2022-12-18T21:51:59.599Z,31.55
2022-12-18T21:54:28.165Z,45.97
2022-12-18T21:56:57.092Z,36.25
2022-12-18T21:59:32.529Z,45.85
2022-12-18T22:02:02.256Z,30.98
2022-12-18T22:04:30.007Z,31.05
2022-12-18T22:06:56.962Z,28.95
2022-12-18T22:09:25.414Z,26.05
2022-12-18T22:11:52.865Z,26.55
2022-12-18T22:14:20.333Z,33.75
2022-12-18T22:16:47.877Z,26.70
2022-12-18T22:19:14.981Z,28.70
2022-12-18T22:21:45.850Z,27.55
2022-12-18T22:24:25.048Z,28.88
2022-12-18T22:26:57.302Z,25.48
2022-12-18T22:29:47.568Z,27.23
2022-12-18T22:34:43.622Z,28.05
2022-12-18T22:37:13.816Z,28.48
2022-12-18T22:39:45.429Z,28.38
2022-12-18T22:42:12.905Z,27.77
2022-12-18T22:44:39.923Z,29.35
2022-12-18T22:47:08.895Z,28.85
2022-12-18T22:49:35.990Z,24.13
2022-12-18T22:52:09.402Z,37.33
2022-12-18T22:54:36.311Z,28.83
2022-12-18T22:57:03.454Z,30.20
2022-12-18T22:59:30.537Z,26.77
2022-12-18T23:01:58.992Z,26.38
2022-12-18T23:04:30.629Z,31.20
2022-12-18T23:07:05.108Z,36.15
2022-12-18T23:09:31.985Z,28.35
2022-12-18T23:11:59.048Z,26.38
2022-12-18T23:14:25.701Z,25.48
2022-12-18T23:16:53.095Z,32.03
2022-12-18T23:19:20.442Z,31.80
2022-12-18T23:21:47.328Z,27.27
2022-12-18T23:24:14.284Z,26.20
2022-12-18T23:26:40.947Z,25.55
2022-12-18T23:29:08.349Z,34.30
2022-12-18T23:31:38.723Z,30.30
2022-12-18T23:34:07.506Z,29.60
2022-12-18T23:36:43.872Z,31.58
2022-12-18T23:39:29.883Z,26.92
2022-12-18T23:41:58.858Z,28.10
2022-12-18T23:44:26.247Z,28.00
2022-12-18T23:46:53.516Z,32.38
2022-12-18T23:49:20.574Z,26.70
2022-12-18T23:51:47.181Z,36.95
2022-12-18T23:54:16.009Z,31.10
2022-12-18T23:56:42.550Z,31.40
2022-12-18T23:59:09.712Z,33.58
